Time;durP1;ratioP1;P1;durP2;ratioP2;P2;SDS_P1;SDS_P2;PMS_P1;PMS_P2;Temp;Humidity;BMP_temperature;BMP_pressure;BME280_temperature;BME280_humidity;BME280_pressure;Samples;Min_cycle;Max_cycle;Signal;HPM_P1;HPM_P2
2022/01/19 00:00:12;;;;;;;;;;;5.30;99.90;;;;;;6212058;23;20334;-72
2022/01/19 00:02:37;;;;;;;;;;;5.30;99.90;;;;;;6212426;23;20276;-72
2022/01/19 00:05:04;;;;;;;;;;;5.10;99.90;;;;;;6212613;23;19903;-72
2022/01/19 00:07:29;;;;;;;;;;;5.10;99.90;;;;;;6211259;23;20300;-72
2022/01/19 00:09:55;;;;;;;;;;;5.20;99.90;;;;;;6211738;23;19979;-72
2022/01/19 00:12:21;;;;;;;;;;;5.10;99.90;;;;;;6211886;23;19931;-72
2022/01/19 00:14:46;;;;;;;;;;;5.20;99.90;;;;;;6212050;23;19900;-72
2022/01/19 00:17:12;;;;;;;;;;;5.40;99.90;;;;;;6212535;23;20411;-72
2022/01/19 00:19:37;;;;;;;;;;;5.30;99.90;;;;;;6209875;23;20399;-72
2022/01/19 00:22:03;;;;;;;;;;;5.40;99.90;;;;;;6213390;23;19938;-72
2022/01/19 00:24:28;;;;;;;;;;;5.40;99.90;;;;;;6213023;23;20339;-72
2022/01/19 00:26:54;;;;;;;;;;;5.50;99.90;;;;;;6209994;23;19950;-72
2022/01/19 00:29:19;;;;;;;;;;;5.50;99.90;;;;;;6212703;23;19907;-73
2022/01/19 00:31:45;;;;;;;;;;;5.60;99.90;;;;;;6212529;23;19950;-73
2022/01/19 00:34:11;;;;;;;;;;;5.60;99.90;;;;;;6211256;23;20251;-71
2022/01/19 00:36:36;;;;;;;;;;;5.70;99.90;;;;;;6212405;23;19899;-72
2022/01/19 00:39:02;;;;;;;;;;;5.60;99.90;;;;;;6210975;23;19939;-72
2022/01/19 00:41:27;;;;;;;;;;;5.50;99.90;;;;;;6212045;23;19907;-72
2022/01/19 00:43:53;;;;;;;;;;;5.60;99.90;;;;;;6212581;23;20420;-72
2022/01/19 00:46:18;;;;;;;;;;;5.60;99.90;;;;;;6211033;23;20205;-72
2022/01/19 00:48:44;;;;;;;;;;;5.60;99.90;;;;;;6212442;23;19900;-71
2022/01/19 00:51:09;;;;;;;;;;;5.60;99.90;;;;;;6212765;23;19904;-72
2022/01/19 00:53:35;;;;;;;;;;;5.50;99.90;;;;;;6211608;23;19900;-72
2022/01/19 00:56:01;;;;;;;;;;;5.50;99.90;;;;;;6212877;23;19900;-72
2022/01/19 00:58:26;;;;;;;;;;;5.50;99.90;;;;;;6213497;23;20255;-73
2022/01/19 01:00:52;;;;;;;;;;;5.50;99.90;;;;;;6209137;23;19900;-72
2022/01/19 01:03:17;;;;;;;;;;;5.50;99.90;;;;;;6213006;23;19906;-72
2022/01/19 01:05:44;;;;;;;;;;;5.40;99.90;;;;;;6213212;23;20464;-73
2022/01/19 01:08:10;;;;;;;;;;;5.40;99.90;;;;;;6211478;23;19900;-72
2022/01/19 01:10:41;;;;;;;;;;;5.40;99.90;;;;;;6211922;23;19951;-72
2022/01/19 01:18:20;;;;;;;;;;;5.30;99.90;;;;;;6213020;23;19900;-72
2022/01/19 01:20:47;;;;;;;;;;;5.40;99.90;;;;;;6211530;23;20332;-71
2022/01/19 01:23:13;;;;;;;;;;;5.50;99.90;;;;;;6212682;23;20213;-72
2022/01/19 01:25:39;;;;;;;;;;;5.50;99.90;;;;;;6212112;23;19906;-73
2022/01/19 01:28:06;;;;;;;;;;;5.50;99.90;;;;;;6211303;23;19899;-73
2022/01/19 01:30:32;;;;;;;;;;;5.50;99.90;;;;;;6212146;23;19899;-72
2022/01/19 01:32:58;;;;;;;;;;;5.50;99.90;;;;;;6210762;23;20342;-72
2022/01/19 01:35:23;;;;;;;;;;;5.30;99.90;;;;;;6211904;23;19900;-71
2022/01/19 01:37:49;;;;;;;;;;;5.30;99.90;;;;;;6211519;23;19911;-72
2022/01/19 01:40:14;;;;;;;;;;;5.40;99.90;;;;;;6211693;23;19907;-72
2022/01/19 01:42:41;;;;;;;;;;;5.30;99.90;;;;;;6214593;23;19990;-73
2022/01/19 01:45:12;;;;;;;;;;;5.40;99.90;;;;;;6212937;23;19910;-71
2022/01/19 01:47:43;;;;;;;;;;;5.40;99.90;;;;;;6212020;23;20232;-73
2022/01/19 01:55:21;;;;;;;;;;;5.50;99.90;;;;;;6212907;23;19906;-73
2022/01/19 01:57:48;;;;;;;;;;;5.30;99.90;;;;;;6214018;23;20209;-73
2022/01/19 02:00:17;;;;;;;;;;;5.30;99.90;;;;;;6211554;23;19904;-72
2022/01/19 02:02:43;;;;;;;;;;;5.40;99.90;;;;;;6212518;23;19900;-72
2022/01/19 02:05:10;;;;;;;;;;;5.60;99.90;;;;;;6211985;23;19985;-73
2022/01/19 02:15:53;;;;;;;;;;;5.50;99.90;;;;;;6214363;23;19918;-72
2022/01/19 02:23:50;;;;;;;;;;;5.70;99.90;;;;;;6214984;23;20253;-73
2022/01/19 02:26:25;;;;;;;;;;;5.80;99.90;;;;;;6213315;23;19900;-73
2022/01/19 02:29:23;;;;;;;;;;;5.90;99.90;;;;;;6214034;23;19899;-73
2022/01/19 02:36:35;;;;;;;;;;;5.90;99.90;;;;;;6212882;23;19907;-73
2022/01/19 02:42:51;;;;;;;;;;;5.80;99.90;;;;;;6224298;23;19922;-73
2022/01/19 02:50:27;;;;;;;;;;;5.80;99.90;;;;;;6218012;23;19919;-73
2022/01/19 02:52:53;;;;;;;;;;;6.00;99.90;;;;;;6217901;23;19908;-72
2022/01/19 02:55:18;;;;;;;;;;;6.00;99.90;;;;;;6218526;23;19915;-72
2022/01/19 02:57:46;;;;;;;;;;;6.10;99.90;;;;;;6221161;23;19923;-72
2022/01/19 03:11:08;;;;;;;;;;;6.20;99.90;;;;;;6216398;23;19900;-73
2022/01/19 03:13:34;;;;;;;;;;;6.20;99.90;;;;;;6213115;23;19908;-73
2022/01/19 03:16:00;;;;;;;;;;;6.30;99.90;;;;;;6214920;23;19926;-73
2022/01/19 03:18:25;;;;;;;;;;;6.30;99.90;;;;;;6215360;23;19950;-71
2022/01/19 03:20:51;;;;;;;;;;;6.10;99.90;;;;;;6214700;23;19904;-72
2022/01/19 03:23:20;;;;;;;;;;;6.00;99.90;;;;;;6214560;23;20217;-73
2022/01/19 03:25:50;;;;;;;;;;;6.10;99.90;;;;;;6211549;23;19975;-73
2022/01/19 03:28:16;;;;;;;;;;;6.00;99.90;;;;;;6213996;23;19900;-73
2022/01/19 03:30:42;;;;;;;;;;;5.80;99.90;;;;;;6213718;23;19906;-73
2022/01/19 03:33:07;;;;;;;;;;;5.70;99.90;;;;;;6212995;23;20248;-73
2022/01/19 03:35:33;;;;;;;;;;;5.80;99.90;;;;;;6213344;23;19904;-72
2022/01/19 03:37:59;;;;;;;;;;;5.80;99.90;;;;;;6216530;23;19906;-72
2022/01/19 03:40:24;;;;;;;;;;;5.90;99.90;;;;;;6213644;23;20014;-72
2022/01/19 03:42:50;;;;;;;;;;;5.90;99.90;;;;;;6214501;23;19919;-73
2022/01/19 03:45:16;;;;;;;;;;;5.90;99.90;;;;;;6215198;23;19911;-72
2022/01/19 03:47:47;;;;;;;;;;;6.10;99.90;;;;;;6214335;23;19904;-73
2022/01/19 03:50:12;;;;;;;;;;;6.20;99.90;;;;;;6215068;23;19975;-73
2022/01/19 03:52:38;;;;;;;;;;;6.10;99.90;;;;;;6214530;23;19931;-72
2022/01/19 03:55:04;;;;;;;;;;;6.20;99.90;;;;;;6218214;23;19927;-71
2022/01/19 03:57:30;;;;;;;;;;;6.30;99.90;;;;;;6225302;23;19911;-73
2022/01/19 03:59:55;;;;;;;;;;;6.40;99.90;;;;;;6225579;23;19985;-72
2022/01/19 04:02:21;;;;;;;;;;;6.50;99.90;;;;;;6223570;23;19900;-71
2022/01/19 04:04:53;;;;;;;;;;;6.60;99.90;;;;;;6223426;23;19900;-72
2022/01/19 04:07:18;;;;;;;;;;;6.60;99.90;;;;;;6221890;23;19938;-71
2022/01/19 04:09:45;;;;;;;;;;;6.60;99.90;;;;;;6221518;23;19904;-71
2022/01/19 04:12:24;;;;;;;;;;;6.70;99.90;;;;;;6217123;23;19954;-73
2022/01/19 04:14:49;;;;;;;;;;;6.70;99.90;;;;;;6217343;23;19954;-72
2022/01/19 04:17:16;;;;;;;;;;;6.70;99.90;;;;;;6215910;23;19900;-72
2022/01/19 04:19:44;;;;;;;;;;;6.80;99.90;;;;;;6215296;23;19900;-73
2022/01/19 04:22:13;;;;;;;;;;;6.80;99.90;;;;;;6215737;23;19900;-73
2022/01/19 04:24:39;;;;;;;;;;;6.80;99.90;;;;;;6215655;23;19904;-71
2022/01/19 04:29:46;;;;;;;;;;;6.90;99.90;;;;;;6216878;23;19900;-72
2022/01/19 04:32:17;;;;;;;;;;;6.80;99.90;;;;;;6215311;23;20221;-72
2022/01/19 04:34:44;;;;;;;;;;;6.90;99.90;;;;;;6215625;23;19900;-73
2022/01/19 05:04:27;;;;;;;;;;;7.20;99.90;;;;;;6214075;23;19991;-73
2022/01/19 05:07:07;;;;;;;;;;;7.20;99.90;;;;;;6215112;23;19904;-72
2022/01/19 05:15:05;;;;;;;;;;;6.70;99.90;;;;;;6217913;23;19910;-72
2022/01/19 05:17:31;;;;;;;;;;;6.70;99.90;;;;;;6215323;23;19945;-73
2022/01/19 05:19:57;;;;;;;;;;;6.90;99.90;;;;;;6216796;23;19919;-73
2022/01/19 05:22:22;;;;;;;;;;;6.90;99.90;;;;;;6217336;23;19930;-71
2022/01/19 05:24:48;;;;;;;;;;;6.90;99.90;;;;;;6215653;23;20330;-71
2022/01/19 05:27:13;;;;;;;;;;;6.90;99.90;;;;;;6218415;23;19943;-72
2022/01/19 05:29:39;;;;;;;;;;;7.10;99.90;;;;;;6220558;23;19900;-72
2022/01/19 05:32:05;;;;;;;;;;;7.20;99.90;;;;;;6219182;23;19908;-72
2022/01/19 05:34:30;;;;;;;;;;;7.10;99.90;;;;;;6219455;23;19900;-73
2022/01/19 05:36:56;;;;;;;;;;;7.10;99.90;;;;;;6219328;23;19910;-72
2022/01/19 05:39:21;;;;;;;;;;;7.20;99.90;;;;;;6218312;23;19903;-73
2022/01/19 05:41:47;;;;;;;;;;;7.20;99.90;;;;;;6215997;23;19900;-73
2022/01/19 05:44:13;;;;;;;;;;;7.20;99.90;;;;;;6216536;23;19912;-72
2022/01/19 05:46:38;;;;;;;;;;;7.00;99.90;;;;;;6215638;23;20001;-73
2022/01/19 05:49:04;;;;;;;;;;;6.90;99.90;;;;;;6216669;23;20378;-73
2022/01/19 05:51:30;;;;;;;;;;;6.80;99.90;;;;;;6216213;23;20299;-72
2022/01/19 05:53:56;;;;;;;;;;;6.80;99.90;;;;;;6214827;23;19903;-71
2022/01/19 05:56:21;;;;;;;;;;;6.80;99.90;;;;;;6216522;23;19949;-72
2022/01/19 05:58:47;;;;;;;;;;;6.60;99.90;;;;;;6216232;23;19904;-72
2022/01/19 06:01:12;;;;;;;;;;;6.50;99.90;;;;;;6214761;23;19900;-72
2022/01/19 06:03:38;;;;;;;;;;;6.40;99.90;;;;;;6217182;23;19907;-72
2022/01/19 06:06:04;;;;;;;;;;;6.50;99.90;;;;;;6215923;23;19928;-72
2022/01/19 06:08:40;;;;;;;;;;;6.50;99.90;;;;;;6214494;23;19906;-72
2022/01/19 06:11:06;;;;;;;;;;;6.50;99.90;;;;;;6216975;23;20232;-72
2022/01/19 06:13:31;;;;;;;;;;;6.50;99.90;;;;;;6214948;23;19908;-73
2022/01/19 06:15:57;;;;;;;;;;;6.50;99.90;;;;;;6214912;23;19900;-72
2022/01/19 06:18:23;;;;;;;;;;;6.50;99.90;;;;;;6216405;23;19910;-73
2022/01/19 06:20:49;;;;;;;;;;;6.40;99.90;;;;;;6215795;23;19930;-73
2022/01/19 06:23:15;;;;;;;;;;;6.40;99.90;;;;;;6216073;23;19932;-73
2022/01/19 06:25:41;;;;;;;;;;;6.30;99.90;;;;;;6217050;23;19911;-73
2022/01/19 06:28:06;;;;;;;;;;;6.30;99.90;;;;;;6213475;23;19904;-73
2022/01/19 06:30:32;;;;;;;;;;;6.30;99.90;;;;;;6216374;23;19942;-73
2022/01/19 06:32:58;;;;;;;;;;;6.50;99.90;;;;;;6214932;23;19908;-72
2022/01/19 06:35:23;;;;;;;;;;;6.50;99.90;;;;;;6216093;23;19958;-72
2022/01/19 06:37:49;;;;;;;;;;;6.60;99.90;;;;;;6217253;23;19914;-72
2022/01/19 06:40:16;;;;;;;;;;;6.70;99.90;;;;;;6214512;23;20447;-73
2022/01/19 06:42:42;;;;;;;;;;;6.70;99.90;;;;;;6216704;23;20033;-72
2022/01/19 06:45:08;;;;;;;;;;;6.70;99.90;;;;;;6216605;23;19978;-72
2022/01/19 06:47:34;;;;;;;;;;;6.70;99.90;;;;;;6215344;23;19900;-72
2022/01/19 06:49:59;;;;;;;;;;;6.70;99.90;;;;;;6216503;23;20312;-72
2022/01/19 06:52:25;;;;;;;;;;;6.70;99.90;;;;;;6216921;23;19919;-71
2022/01/19 06:54:51;;;;;;;;;;;6.60;99.90;;;;;;6213206;23;19900;-72
2022/01/19 06:57:16;;;;;;;;;;;6.60;99.90;;;;;;6216335;23;19939;-72
2022/01/19 06:59:42;;;;;;;;;;;6.40;99.90;;;;;;6216694;23;19978;-73
2022/01/19 07:02:08;;;;;;;;;;;6.50;99.90;;;;;;6217918;23;19911;-73
2022/01/19 07:04:36;;;;;;;;;;;6.60;99.90;;;;;;6218904;23;19924;-72
2022/01/19 07:07:02;;;;;;;;;;;6.50;99.90;;;;;;6219532;23;19950;-72
2022/01/19 07:09:27;;;;;;;;;;;6.40;99.90;;;;;;6221013;23;19900;-72
2022/01/19 07:11:53;;;;;;;;;;;6.50;99.90;;;;;;6223208;23;19908;-72
2022/01/19 07:14:18;;;;;;;;;;;6.50;99.90;;;;;;6221377;23;19911;-72
2022/01/19 07:16:44;;;;;;;;;;;6.50;99.90;;;;;;6222012;23;19899;-72
2022/01/19 07:19:10;;;;;;;;;;;6.60;99.90;;;;;;6222434;23;19900;-72
2022/01/19 07:21:35;;;;;;;;;;;6.80;99.90;;;;;;6220311;23;19900;-72
2022/01/19 07:24:01;;;;;;;;;;;6.80;99.90;;;;;;6221022;23;19900;-73
2022/01/19 07:26:27;;;;;;;;;;;6.90;99.90;;;;;;6219811;23;20293;-73
2022/01/19 07:28:53;;;;;;;;;;;7.00;99.90;;;;;;6219576;23;20372;-72
2022/01/19 07:31:18;;;;;;;;;;;7.20;99.90;;;;;;6220311;23;19907;-73
2022/01/19 07:33:44;;;;;;;;;;;7.20;99.90;;;;;;6219205;23;19919;-72
2022/01/19 07:36:10;;;;;;;;;;;7.20;99.90;;;;;;6218566;23;19923;-73
2022/01/19 07:38:35;;;;;;;;;;;6.90;99.90;;;;;;6214613;23;20287;-71
2022/01/19 07:41:01;;;;;;;;;;;6.90;99.90;;;;;;6210537;23;19904;-71
2022/01/19 07:43:26;;;;;;;;;;;7.00;99.90;;;;;;6212515;23;20403;-71
2022/01/19 07:45:52;;;;;;;;;;;7.10;99.90;;;;;;6211342;23;20309;-72
2022/01/19 07:48:17;;;;;;;;;;;7.10;99.90;;;;;;6213508;23;20308;-71
2022/01/19 07:50:43;;;;;;;;;;;7.20;99.90;;;;;;6213864;23;20332;-72
2022/01/19 07:53:09;;;;;;;;;;;7.20;99.90;;;;;;6211169;23;20324;-72
2022/01/19 07:55:34;;;;;;;;;;;7.30;99.90;;;;;;6211737;23;19938;-71
2022/01/19 07:58:01;;;;;;;;;;;7.40;99.90;;;;;;6214380;23;19900;-70
2022/01/19 08:00:27;;;;;;;;;;;7.30;99.90;;;;;;6213848;23;19931;-70
2022/01/19 08:02:53;;;;;;;;;;;7.10;99.90;;;;;;6214225;23;20232;-74
2022/01/19 08:05:18;;;;;;;;;;;7.10;99.90;;;;;;6216270;23;19956;-73
2022/01/19 08:07:44;;;;;;;;;;;7.10;99.90;;;;;;6212942;23;19904;-69
2022/01/19 08:10:11;;;;;;;;;;;7.00;99.90;;;;;;6210938;23;19904;-70
2022/01/19 08:12:37;;;;;;;;;;;6.90;99.90;;;;;;6210742;23;19908;-69
2022/01/19 08:15:03;;;;;;;;;;;7.00;99.90;;;;;;6210415;23;19907;-70
2022/01/19 08:17:29;;;;;;;;;;;7.10;99.90;;;;;;6211730;23;20327;-70
2022/01/19 08:19:56;;;;;;;;;;;7.30;99.90;;;;;;6208851;23;20105;-70
2022/01/19 08:22:21;;;;;;;;;;;7.40;99.90;;;;;;6211357;23;19900;-71
2022/01/19 08:24:47;;;;;;;;;;;7.50;99.90;;;;;;6211156;23;19907;-70
2022/01/19 08:27:13;;;;;;;;;;;7.60;99.90;;;;;;6210640;23;20256;-72
2022/01/19 08:29:38;;;;;;;;;;;7.50;99.90;;;;;;6211451;23;20059;-72
2022/01/19 08:32:04;;;;;;;;;;;7.60;99.90;;;;;;6212148;23;20305;-71
2022/01/19 08:34:30;;;;;;;;;;;7.60;99.90;;;;;;6214035;23;19900;-76
2022/01/19 08:36:56;;;;;;;;;;;7.60;99.90;;;;;;6213226;23;20334;-71
2022/01/19 08:39:21;;;;;;;;;;;7.70;99.90;;;;;;6213195;23;20236;-73
2022/01/19 08:41:47;;;;;;;;;;;7.80;99.90;;;;;;6211724;23;19900;-72
2022/01/19 08:44:13;;;;;;;;;;;7.70;99.90;;;;;;6211134;23;19916;-72
2022/01/19 08:46:39;;;;;;;;;;;7.70;99.90;;;;;;6212518;23;19995;-73
2022/01/19 08:49:05;;;;;;;;;;;7.80;99.90;;;;;;6210245;23;20343;-72
2022/01/19 08:51:30;;;;;;;;;;;7.90;99.90;;;;;;6211876;23;19904;-72
2022/01/19 08:53:56;;;;;;;;;;;7.90;99.90;;;;;;6210925;23;19903;-72
2022/01/19 08:56:21;;;;;;;;;;;7.90;99.90;;;;;;6212013;23;19931;-72
2022/01/19 08:58:47;;;;;;;;;;;7.90;99.90;;;;;;6212246;23;19907;-71
2022/01/19 09:01:12;;;;;;;;;;;8.00;99.90;;;;;;6212020;23;19904;-70
2022/01/19 09:03:38;;;;;;;;;;;8.00;99.90;;;;;;6213973;23;19961;-72
2022/01/19 09:06:03;;;;;;;;;;;8.10;99.90;;;;;;6214190;23;20287;-70
2022/01/19 09:08:31;;;;;;;;;;;8.20;99.90;;;;;;6212771;23;19950;-70
2022/01/19 09:10:58;;;;;;;;;;;8.30;99.90;;;;;;6215478;23;20321;-70
2022/01/19 09:13:24;;;;;;;;;;;8.40;99.90;;;;;;6213825;23;19908;-70
2022/01/19 09:15:50;;;;;;;;;;;8.50;99.90;;;;;;6216008;23;20063;-70
2022/01/19 09:18:16;;;;;;;;;;;8.60;99.90;;;;;;6221417;23;19900;-71
2022/01/19 09:20:41;;;;;;;;;;;8.70;99.90;;;;;;6225687;23;19899;-72
2022/01/19 09:23:07;;;;;;;;;;;8.70;99.90;;;;;;6226060;23;19915;-71
2022/01/19 09:25:33;;;;;;;;;;;8.70;99.90;;;;;;6220702;23;19903;-71
2022/01/19 09:27:59;;;;;;;;;;;8.70;99.90;;;;;;6216122;23;19935;-71
2022/01/19 09:30:25;;;;;;;;;;;8.60;99.90;;;;;;6220002;23;19899;-72
2022/01/19 09:33:05;;;;;;;;;;;8.70;99.90;;;;;;6217579;23;19915;-70
2022/01/19 09:35:49;;;;;;;;;;;8.50;99.90;;;;;;6220566;23;20338;-71
2022/01/19 09:38:15;;;;;;;;;;;8.40;99.90;;;;;;6216616;23;19900;-70
2022/01/19 09:40:40;;;;;;;;;;;8.40;99.90;;;;;;6212309;23;19900;-71
2022/01/19 09:43:07;;;;;;;;;;;8.40;99.90;;;;;;6212754;23;19912;-70
2022/01/19 09:45:33;;;;;;;;;;;8.40;99.90;;;;;;6213909;23;19939;-70
2022/01/19 09:47:59;;;;;;;;;;;8.30;99.90;;;;;;6213381;23;19908;-70
2022/01/19 09:50:24;;;;;;;;;;;8.30;99.90;;;;;;6212673;23;19900;-70
2022/01/19 09:52:50;;;;;;;;;;;8.20;99.90;;;;;;6213109;23;20331;-70
2022/01/19 09:55:16;;;;;;;;;;;8.20;99.90;;;;;;6213991;23;19979;-70
2022/01/19 09:57:41;;;;;;;;;;;8.10;99.90;;;;;;6214369;23;19956;-70
2022/01/19 10:00:07;;;;;;;;;;;8.00;99.90;;;;;;6212662;23;19931;-70
2022/01/19 10:02:32;;;;;;;;;;;8.00;99.90;;;;;;6213577;23;19945;-69
2022/01/19 10:05:04;;;;;;;;;;;7.90;99.90;;;;;;6216039;23;19900;-70
2022/01/19 10:07:30;;;;;;;;;;;7.90;99.90;;;;;;6210420;23;19987;-70
2022/01/19 10:10:04;;;;;;;;;;;7.90;99.90;;;;;;6215096;23;19904;-71
2022/01/19 10:18:12;;;;;;;;;;;7.90;99.90;;;;;;6217218;23;19910;-71
2022/01/19 10:20:38;;;;;;;;;;;8.00;99.90;;;;;;6214307;23;19946;-71
2022/01/19 10:23:04;;;;;;;;;;;8.00;99.90;;;;;;6216807;23;19900;-71
2022/01/19 10:25:50;;;;;;;;;;;7.90;99.90;;;;;;6216052;23;19946;-71
2022/01/19 10:28:16;;;;;;;;;;;8.00;99.90;;;;;;6216677;23;19907;-71
2022/01/19 10:30:42;;;;;;;;;;;8.20;99.90;;;;;;6216262;23;19900;-71
2022/01/19 10:33:08;;;;;;;;;;;8.20;99.90;;;;;;6215828;23;19943;-71
2022/01/19 10:35:36;;;;;;;;;;;8.20;99.90;;;;;;6218075;23;19904;-72
2022/01/19 10:38:06;;;;;;;;;;;8.30;99.90;;;;;;6218322;23;20285;-71
2022/01/19 10:40:32;;;;;;;;;;;8.40;99.90;;;;;;6216915;23;19954;-71
2022/01/19 10:42:57;;;;;;;;;;;8.30;99.90;;;;;;6218322;23;19992;-71
2022/01/19 10:45:23;;;;;;;;;;;8.20;99.90;;;;;;6216910;23;19975;-71
2022/01/19 10:47:54;;;;;;;;;;;8.10;99.90;;;;;;6216045;23;19907;-71
2022/01/19 10:50:32;;;;;;;;;;;8.10;99.90;;;;;;6217113;23;19978;-71
2022/01/19 10:52:59;;;;;;;;;;;8.20;99.90;;;;;;6212817;23;19907;-71
2022/01/19 10:55:33;;;;;;;;;;;8.30;99.90;;;;;;6214124;23;20297;-71
2022/01/19 10:58:00;;;;;;;;;;;8.50;99.90;;;;;;6214598;23;20279;-71
2022/01/19 11:00:25;;;;;;;;;;;8.60;99.90;;;;;;6210501;23;20200;-71
2022/01/19 11:02:53;;;;;;;;;;;8.70;99.90;;;;;;6215338;23;19935;-73
2022/01/19 11:05:38;;;;;;;;;;;8.70;99.90;;;;;;6214426;23;19907;-71
2022/01/19 11:08:05;;;;;;;;;;;8.80;99.90;;;;;;6212248;23;19900;-72
2022/01/19 11:10:31;;;;;;;;;;;9.00;99.90;;;;;;6214390;23;19922;-71
2022/01/19 11:12:57;;;;;;;;;;;9.00;99.90;;;;;;6213262;23;20298;-70
2022/01/19 11:15:23;;;;;;;;;;;9.10;99.90;;;;;;6214368;23;19926;-72
2022/01/19 11:17:49;;;;;;;;;;;9.10;99.90;;;;;;6214500;23;19907;-71
2022/01/19 11:20:16;;;;;;;;;;;9.30;99.90;;;;;;6213108;23;20313;-72
2022/01/19 11:22:49;;;;;;;;;;;9.40;99.90;;;;;;6213569;23;19927;-71
2022/01/19 11:25:33;;;;;;;;;;;9.60;99.90;;;;;;6213872;23;19977;-72
2022/01/19 11:27:58;;;;;;;;;;;9.80;99.90;;;;;;6212949;23;19900;-71
2022/01/19 11:30:32;;;;;;;;;;;10.00;99.90;;;;;;6213188;23;19923;-72
2022/01/19 11:33:09;;;;;;;;;;;10.20;99.90;;;;;;6211664;23;19943;-71
2022/01/19 11:35:35;;;;;;;;;;;10.40;99.90;;;;;;6214162;23;19907;-72
2022/01/19 11:38:01;;;;;;;;;;;10.50;99.90;;;;;;6213256;23;19974;-71
2022/01/19 11:40:40;;;;;;;;;;;10.60;99.90;;;;;;6210776;23;19954;-72
2022/01/19 11:43:25;;;;;;;;;;;10.60;99.90;;;;;;6213241;23;19916;-71
2022/01/19 11:45:51;;;;;;;;;;;10.60;99.90;;;;;;6213365;23;19900;-72
2022/01/19 11:48:19;;;;;;;;;;;10.40;99.90;;;;;;6212562;23;19900;-72
2022/01/19 11:50:46;;;;;;;;;;;10.40;99.90;;;;;;6213168;23;20237;-72
2022/01/19 11:53:12;;;;;;;;;;;10.40;99.90;;;;;;6208082;23;20428;-71
2022/01/19 11:55:39;;;;;;;;;;;10.60;99.90;;;;;;6212870;23;20225;-72
2022/01/19 11:58:13;;;;;;;;;;;10.40;99.90;;;;;;6211713;23;19900;-72
2022/01/19 12:00:40;;;;;;;;;;;10.40;99.90;;;;;;6209964;23;19904;-71
2022/01/19 12:03:18;;;;;;;;;;;10.50;99.90;;;;;;6209198;23;20313;-71
2022/01/19 12:05:44;;;;;;;;;;;10.50;99.90;;;;;;6211752;23;19915;-72
2022/01/19 12:08:18;;;;;;;;;;;10.60;99.90;;;;;;6209809;23;20002;-72
2022/01/19 12:10:46;;;;;;;;;;;10.60;99.90;;;;;;6211697;23;19900;-72
2022/01/19 12:16:19;;;;;;;;;;;10.90;99.90;;;;;;6212148;23;19987;-71
2022/01/19 12:18:49;;;;;;;;;;;11.30;99.90;;;;;;6211240;23;19903;-71
2022/01/19 12:21:35;;;;;;;;;;;11.50;99.90;;;;;;6210918;23;19995;-72
2022/01/19 12:24:21;;;;;;;;;;;11.70;99.90;;;;;;6165283;23;19900;-72
2022/01/19 12:26:59;;;;;;;;;;;11.50;99.90;;;;;;6209760;23;19954;-71
2022/01/19 12:29:34;;;;;;;;;;;11.40;99.90;;;;;;6211318;23;19899;-72
2022/01/19 12:32:03;;;;;;;;;;;11.60;99.90;;;;;;6210861;23;19939;-71
2022/01/19 12:34:42;;;;;;;;;;;11.60;99.90;;;;;;6209375;23;19900;-72
2022/01/19 12:37:08;;;;;;;;;;;11.80;99.90;;;;;;6212154;23;19982;-73
2022/01/19 12:39:35;;;;;;;;;;;11.90;99.90;;;;;;6211326;23;19935;-72
2022/01/19 12:42:01;;;;;;;;;;;12.00;99.90;;;;;;6212037;23;19900;-70
2022/01/19 12:44:35;;;;;;;;;;;12.10;99.90;;;;;;6210400;23;19912;-72
2022/01/19 12:47:01;;;;;;;;;;;11.90;99.90;;;;;;6210772;23;19904;-71
2022/01/19 12:49:27;;;;;;;;;;;12.00;99.90;;;;;;6211719;23;19931;-71
2022/01/19 12:51:54;;;;;;;;;;;12.00;99.90;;;;;;6212107;23;19915;-71
2022/01/19 12:54:25;;;;;;;;;;;11.80;99.90;;;;;;6212612;23;19900;-70
2022/01/19 12:56:56;;;;;;;;;;;11.90;99.90;;;;;;6208218;23;19974;-70
2022/01/19 12:59:22;;;;;;;;;;;12.10;99.90;;;;;;6210860;23;19985;-71
2022/01/19 13:01:47;;;;;;;;;;;12.20;99.90;;;;;;6210878;23;19908;-75
2022/01/19 13:04:30;;;;;;;;;;;12.30;99.90;;;;;;6212971;23;19900;-71
2022/01/19 13:07:12;;;;;;;;;;;12.20;99.90;;;;;;6211786;23;19907;-71
2022/01/19 13:09:59;;;;;;;;;;;12.20;99.90;;;;;;6211712;23;19907;-71
2022/01/19 13:12:35;;;;;;;;;;;12.10;99.90;;;;;;6212652;23;19912;-72
2022/01/19 13:15:01;;;;;;;;;;;12.10;99.90;;;;;;6210965;23;19904;-70
2022/01/19 13:17:38;;;;;;;;;;;11.90;99.90;;;;;;6212608;23;19922;-72
2022/01/19 13:20:08;;;;;;;;;;;11.80;99.90;;;;;;6212790;23;19900;-72
2022/01/19 13:22:42;;;;;;;;;;;11.60;99.90;;;;;;6212010;23;19986;-73
2022/01/19 13:25:13;;;;;;;;;;;11.70;99.90;;;;;;6212120;23;20331;-72
2022/01/19 13:27:43;;;;;;;;;;;11.50;99.90;;;;;;6211738;23;19923;-70
2022/01/19 13:30:12;;;;;;;;;;;11.50;99.90;;;;;;6212350;23;19912;-71
2022/01/19 13:32:39;;;;;;;;;;;11.50;99.90;;;;;;6209346;23;19931;-70
2022/01/19 13:35:06;;;;;;;;;;;11.50;99.90;;;;;;6216465;23;19904;-72
2022/01/19 13:37:32;;;;;;;;;;;11.60;99.90;;;;;;6219717;23;19952;-73
2022/01/19 13:40:15;;;;;;;;;;;11.50;99.90;;;;;;6216536;23;19904;-71
2022/01/19 13:42:51;;;;;;;;;;;11.50;99.90;;;;;;6220061;23;19950;-72
2022/01/19 13:45:36;;;;;;;;;;;11.70;99.90;;;;;;6217866;23;19900;-72
2022/01/19 13:50:36;;;;;;;;;;;11.90;99.90;;;;;;6217939;23;20244;-72
2022/01/19 13:53:02;;;;;;;;;;;12.00;99.90;;;;;;6213935;23;19908;-73
2022/01/19 13:55:28;;;;;;;;;;;12.00;99.90;;;;;;6217095;23;19904;-73
2022/01/19 13:58:12;;;;;;;;;;;12.00;99.90;;;;;;6217194;23;19980;-72
2022/01/19 14:00:49;;;;;;;;;;;12.00;99.90;;;;;;6213593;23;19943;-71
2022/01/19 14:03:14;;;;;;;;;;;12.00;99.90;;;;;;6215570;23;19920;-73
2022/01/19 14:05:45;;;;;;;;;;;11.60;99.90;;;;;;6215215;23;19918;-72
2022/01/19 14:08:11;;;;;;;;;;;11.40;99.90;;;;;;6213669;23;19919;-72
2022/01/19 14:10:43;;;;;;;;;;;11.20;99.90;;;;;;6213927;23;19903;-73
2022/01/19 14:13:27;;;;;;;;;;;11.00;99.90;;;;;;6212592;23;19974;-72
2022/01/19 14:15:54;;;;;;;;;;;10.80;99.90;;;;;;6214765;23;19906;-72
2022/01/19 14:18:19;;;;;;;;;;;10.80;99.90;;;;;;6213126;23;19923;-71
2022/01/19 14:21:03;;;;;;;;;;;10.60;99.90;;;;;;6211507;23;19911;-72
2022/01/19 14:23:28;;;;;;;;;;;10.40;99.90;;;;;;6214651;23;20339;-72
2022/01/19 14:26:10;;;;;;;;;;;10.30;99.90;;;;;;6215030;23;19900;-71
2022/01/19 14:28:38;;;;;;;;;;;10.30;99.90;;;;;;6214054;23;19900;-70
2022/01/19 14:31:04;;;;;;;;;;;10.20;99.90;;;;;;6187333;23;19904;-70
2022/01/19 14:33:30;;;;;;;;;;;10.10;99.90;;;;;;6211569;23;20320;-71
2022/01/19 14:35:57;;;;;;;;;;;10.20;99.90;;;;;;6216040;23;19907;-70
2022/01/19 14:38:25;;;;;;;;;;;10.20;99.90;;;;;;6224336;23;19900;-70
2022/01/19 14:40:51;;;;;;;;;;;10.30;99.90;;;;;;6221543;23;20282;-71
2022/01/19 14:43:19;;;;;;;;;;;10.40;99.90;;;;;;6222344;23;19919;-71
2022/01/19 14:45:54;;;;;;;;;;;10.50;99.90;;;;;;6219029;23;19904;-69
2022/01/19 14:48:21;;;;;;;;;;;10.60;99.90;;;;;;6220046;23;19987;-70
2022/01/19 14:50:47;;;;;;;;;;;10.80;99.90;;;;;;6222744;23;19900;-70
2022/01/19 14:53:13;;;;;;;;;;;10.80;99.90;;;;;;6220113;23;19908;-70
2022/01/19 14:55:40;;;;;;;;;;;10.70;99.90;;;;;;6220355;23;19904;-70
2022/01/19 14:58:07;;;;;;;;;;;10.80;99.90;;;;;;6220393;23;19951;-71
2022/01/19 15:00:33;;;;;;;;;;;10.90;99.90;;;;;;6223317;23;19922;-71
2022/01/19 15:03:01;;;;;;;;;;;10.80;99.90;;;;;;6229172;23;19983;-71
2022/01/19 15:05:29;;;;;;;;;;;10.70;99.90;;;;;;6226874;23;19948;-70
2022/01/19 15:07:55;;;;;;;;;;;10.60;99.90;;;;;;6223926;23;19972;-70
2022/01/19 15:10:21;;;;;;;;;;;10.40;99.90;;;;;;6226937;23;19900;-70
2022/01/19 15:12:51;;;;;;;;;;;10.40;99.90;;;;;;6220918;23;19910;-71
2022/01/19 15:15:17;;;;;;;;;;;10.30;99.90;;;;;;6217908;23;19923;-71
2022/01/19 15:17:42;;;;;;;;;;;10.30;99.90;;;;;;6215958;23;19904;-71
2022/01/19 15:20:08;;;;;;;;;;;10.30;99.90;;;;;;6215282;23;19949;-70
2022/01/19 15:22:34;;;;;;;;;;;10.10;99.90;;;;;;6218592;23;20304;-70
2022/01/19 15:25:01;;;;;;;;;;;10.00;99.90;;;;;;6221207;23;19900;-70
2022/01/19 15:27:26;;;;;;;;;;;10.00;99.90;;;;;;6217595;23;19899;-70
2022/01/19 15:29:52;;;;;;;;;;;9.90;99.90;;;;;;6216775;23;19907;-69
2022/01/19 15:32:17;;;;;;;;;;;9.80;99.90;;;;;;6216445;23;19918;-70
2022/01/19 15:34:46;;;;;;;;;;;9.80;99.90;;;;;;6213613;23;19911;-71
2022/01/19 15:37:12;;;;;;;;;;;9.80;99.90;;;;;;6214872;23;19911;-70
2022/01/19 15:39:40;;;;;;;;;;;9.80;99.90;;;;;;6217453;23;19982;-70
2022/01/19 15:42:06;;;;;;;;;;;9.80;99.90;;;;;;6215946;23;20079;-70
2022/01/19 15:44:32;;;;;;;;;;;9.80;99.90;;;;;;6217758;23;19946;-69
2022/01/19 15:46:58;;;;;;;;;;;9.70;99.90;;;;;;6215210;23;19904;-69
2022/01/19 15:49:23;;;;;;;;;;;9.70;99.90;;;;;;6214855;23;19908;-70
2022/01/19 15:51:49;;;;;;;;;;;9.70;99.90;;;;;;6214034;23;19942;-70
2022/01/19 15:54:16;;;;;;;;;;;9.60;99.90;;;;;;6213466;23;20331;-70
2022/01/19 15:56:42;;;;;;;;;;;9.60;99.90;;;;;;6215211;23;19906;-72
2022/01/19 15:59:08;;;;;;;;;;;9.50;99.90;;;;;;6216513;23;19982;-70
2022/01/19 16:01:34;;;;;;;;;;;9.40;99.90;;;;;;6212501;23;19899;-69
2022/01/19 16:04:00;;;;;;;;;;;9.30;99.90;;;;;;6213648;23;19938;-69